createdAt,value
2019-02-21T00:01:43.624Z,13.40
2019-02-21T00:04:44.668Z,13.53
2019-02-21T00:07:29.293Z,11.30
2019-02-21T00:10:14.101Z,15.70
2019-02-21T00:12:58.959Z,15.20
2019-02-21T00:15:43.973Z,18.73
2019-02-21T00:18:28.830Z,18.53
2019-02-21T00:21:13.760Z,15.07
2019-02-21T00:23:58.178Z,13.67
2019-02-21T00:26:44.237Z,13.87
2019-02-21T00:29:28.841Z,15.37
2019-02-21T00:32:22.080Z,16.83
2019-02-21T00:35:06.168Z,17.60
2019-02-21T00:37:50.588Z,18.30
2019-02-21T00:40:44.243Z,17.30
2019-02-21T00:43:29.404Z,14.13
2019-02-21T00:46:22.916Z,17.77
2019-02-21T00:49:07.546Z,15.90
2019-02-21T00:51:52.873Z,16.90
2019-02-21T00:54:37.375Z,19.73
2019-02-21T00:57:31.841Z,20.00
2019-02-21T01:00:16.364Z,18.67
2019-02-21T01:03:04.340Z,17.50
2019-02-21T01:05:48.908Z,17.17
2019-02-21T01:08:33.914Z,19.13
2019-02-21T01:11:18.648Z,18.93
2019-02-21T01:14:03.434Z,19.07
2019-02-21T01:16:48.408Z,18.80
2019-02-21T01:19:32.905Z,20.37
2019-02-21T01:22:17.017Z,20.13
2019-02-21T01:25:10.280Z,18.97
2019-02-21T01:27:54.883Z,21.30
2019-02-21T01:30:39.828Z,20.40
2019-02-21T01:33:24.416Z,21.97
2019-02-21T01:36:08.848Z,22.83
2019-02-21T01:39:02.468Z,21.60
2019-02-21T01:41:49.001Z,22.80
2019-02-21T01:44:43.163Z,20.47
2019-02-21T01:47:36.649Z,19.13
2019-02-21T01:50:20.936Z,21.17
2019-02-21T01:53:06.204Z,20.00
2019-02-21T01:56:00.689Z,22.83
2019-02-21T01:58:45.033Z,23.43
2019-02-21T02:01:29.396Z,24.70
2019-02-21T02:04:22.565Z,24.10
2019-02-21T02:07:07.482Z,22.53
2019-02-21T02:09:52.948Z,24.23
2019-02-21T02:12:46.511Z,21.63
2019-02-21T02:15:31.447Z,23.97
2019-02-21T02:18:16.460Z,20.93
2019-02-21T02:21:10.204Z,18.50
2019-02-21T02:23:54.746Z,20.27
2019-02-21T02:26:39.773Z,20.27
2019-02-21T02:29:24.435Z,21.53
2019-02-21T02:32:09.826Z,23.83
2019-02-21T02:35:03.282Z,21.87
2019-02-21T02:37:47.968Z,25.87
2019-02-21T02:40:32.739Z,27.23
2019-02-21T02:43:17.744Z,24.80
2019-02-21T02:46:03.360Z,23.00
2019-02-21T02:48:56.543Z,25.97
2019-02-21T02:51:41.436Z,24.87
2019-02-21T02:54:25.628Z,24.77
2019-02-21T02:57:10.776Z,26.80
2019-02-21T02:59:55.417Z,24.47
2019-02-21T03:02:40.318Z,25.27
2019-02-21T03:05:24.808Z,24.87
2019-02-21T03:08:09.439Z,24.50
2019-02-21T03:11:03.205Z,23.50
2019-02-21T03:13:56.951Z,22.03
2019-02-21T03:16:41.895Z,22.10
2019-02-21T03:19:26.732Z,25.47
2019-02-21T03:22:11.685Z,24.90
2019-02-21T03:25:05.530Z,23.97
2019-02-21T03:27:50.124Z,23.37
2019-02-21T03:30:34.256Z,24.43
2019-02-21T03:33:18.949Z,23.43
2019-02-21T03:36:12.292Z,25.60
2019-02-21T03:38:56.949Z,26.17
2019-02-21T03:41:41.366Z,20.63
2019-02-21T03:44:25.981Z,20.33
2019-02-21T03:47:10.135Z,23.13
2019-02-21T03:49:55.095Z,21.00
2019-02-21T03:52:48.662Z,20.97
2019-02-21T03:55:33.256Z,19.50
2019-02-21T03:58:17.799Z,21.30
2019-02-21T04:01:02.452Z,19.70
2019-02-21T04:03:55.684Z,19.30
2019-02-21T04:06:40.545Z,21.63
2019-02-21T04:09:25.391Z,20.60
2019-02-21T04:12:09.749Z,19.53
2019-02-21T04:14:53.826Z,21.97
2019-02-21T04:17:48.431Z,19.53
2019-02-21T04:20:42.464Z,21.43
2019-02-21T04:23:27.166Z,22.40
2019-02-21T04:26:11.843Z,24.93
2019-02-21T04:28:56.157Z,21.30
2019-02-21T04:31:40.673Z,19.53
2019-02-21T04:34:25.217Z,21.67
2019-02-21T04:37:21.507Z,19.90
2019-02-21T04:40:06.066Z,21.03
2019-02-21T04:42:50.424Z,19.20
2019-02-21T04:45:43.950Z,17.33
2019-02-21T04:48:28.886Z,20.43
2019-02-21T04:51:13.486Z,18.30
2019-02-21T04:53:57.725Z,21.83
2019-02-21T04:56:42.241Z,20.60
2019-02-21T04:59:35.377Z,19.97
2019-02-21T05:02:28.616Z,18.13
2019-02-21T05:05:06.300Z,20.17
2019-02-21T05:07:51.041Z,20.00
2019-02-21T05:10:36.100Z,18.17
2019-02-21T05:13:20.919Z,19.43
2019-02-21T05:16:05.875Z,21.83
2019-02-21T05:18:50.368Z,20.77
2019-02-21T05:21:35.241Z,17.57
2019-02-21T05:24:19.729Z,19.63
2019-02-21T05:30:18.512Z,19.40
2019-02-21T05:37:02.213Z,15.73
2019-02-21T05:40:31.850Z,17.43
2019-02-21T05:43:41.574Z,14.87
2019-02-21T05:47:26.157Z,16.93
2019-02-21T05:50:35.214Z,17.00
2019-02-21T05:56:38.309Z,16.23
2019-02-21T05:59:42.155Z,16.87
2019-02-21T06:02:33.108Z,17.30
2019-02-21T06:05:37.349Z,19.40
2019-02-21T06:08:41.212Z,18.90
2019-02-21T06:11:44.716Z,17.20
2019-02-21T06:15:11.185Z,17.60
2019-02-21T06:18:14.691Z,16.53
2019-02-21T06:21:07.992Z,19.57
2019-02-21T06:24:00.973Z,16.63
2019-02-21T06:27:04.698Z,16.00
2019-02-21T06:29:56.724Z,18.97
2019-02-21T06:33:04.969Z,17.13
2019-02-21T06:35:46.398Z,18.80
2019-02-21T06:38:33.507Z,18.10
2019-02-21T06:41:26.087Z,16.23
2019-02-21T06:44:19.767Z,19.00
2019-02-21T06:47:05.552Z,18.83
2019-02-21T06:49:50.060Z,20.83
2019-02-21T06:52:43.983Z,18.83
2019-02-21T06:55:29.840Z,21.60
2019-02-21T06:58:14.123Z,19.63
2019-02-21T07:00:58.760Z,21.37
2019-02-21T07:03:52.255Z,16.20
2019-02-21T07:06:39.085Z,18.30
2019-02-21T07:09:23.054Z,15.03
2019-02-21T07:12:07.597Z,17.30
2019-02-21T07:14:51.752Z,17.97
2019-02-21T07:17:49.223Z,16.77
2019-02-21T07:20:31.668Z,19.27
2019-02-21T07:23:16.340Z,18.60
2019-02-21T07:26:04.019Z,19.03
2019-02-21T07:28:48.183Z,19.00
2019-02-21T07:31:41.797Z,21.33
2019-02-21T07:34:26.524Z,19.87
2019-02-21T07:37:18.694Z,15.13
2019-02-21T07:39:56.725Z,17.37
2019-02-21T07:42:50.400Z,17.77
2019-02-21T07:45:36.372Z,21.20
2019-02-21T07:48:21.164Z,23.03
2019-02-21T07:51:05.633Z,20.80
2019-02-21T07:53:58.749Z,20.97
2019-02-21T07:56:43.274Z,26.70
2019-02-21T07:59:27.719Z,22.47
2019-02-21T08:02:21.163Z,23.77
2019-02-21T08:05:06.231Z,25.07
2019-02-21T08:08:00.146Z,23.23
2019-02-21T08:10:45.126Z,22.60
2019-02-21T08:13:38.794Z,24.17
2019-02-21T08:16:23.272Z,21.70
2019-02-21T08:19:07.496Z,22.97
2019-02-21T08:22:07.173Z,19.30
2019-02-21T08:24:52.068Z,21.00
2019-02-21T08:27:46.708Z,20.33
2019-02-21T08:30:40.213Z,25.03
2019-02-21T08:33:34.309Z,24.73
2019-02-21T08:36:18.991Z,22.63
2019-02-21T08:39:05.184Z,21.20
2019-02-21T08:41:50.607Z,24.57
2019-02-21T08:44:35.402Z,27.90
2019-02-21T08:47:20.492Z,24.23
2019-02-21T08:50:04.919Z,26.17
2019-02-21T08:52:49.485Z,27.47
2019-02-21T08:55:33.779Z,26.57
2019-02-21T08:58:27.140Z,20.90
2019-02-21T09:01:11.445Z,23.83
2019-02-21T09:03:56.022Z,21.00
2019-02-21T09:06:40.617Z,25.43
2019-02-21T09:09:33.961Z,28.40
2019-02-21T09:12:17.189Z,23.23
2019-02-21T09:18:14.281Z,27.77
2019-02-21T09:20:58.976Z,23.27
2019-02-21T09:23:43.868Z,22.73
2019-02-21T09:26:28.439Z,26.27
2019-02-21T09:29:13.163Z,24.63
2019-02-21T09:31:57.695Z,29.77
2019-02-21T09:34:41.786Z,23.33
2019-02-21T09:37:35.395Z,27.60
2019-02-21T09:40:19.989Z,28.63
2019-02-21T09:43:04.855Z,26.60
2019-02-21T09:45:49.560Z,29.27
2019-02-21T09:48:33.996Z,26.03
2019-02-21T09:51:18.898Z,22.90
2019-02-21T09:54:02.995Z,24.77
2019-02-21T09:56:56.412Z,30.17
2019-02-21T09:59:41.441Z,24.17
2019-02-21T10:02:26.032Z,29.13
2019-02-21T10:05:10.866Z,27.73
2019-02-21T10:07:55.897Z,27.90
2019-02-21T10:10:40.831Z,28.83
2019-02-21T10:13:25.257Z,28.20
2019-02-21T10:16:09.860Z,24.97
2019-02-21T10:18:54.296Z,21.97
2019-02-21T10:21:39.119Z,23.50
2019-02-21T10:24:24.535Z,24.50
2019-02-21T10:27:10.170Z,21.03
2019-02-21T10:30:03.461Z,24.67
2019-02-21T10:32:47.944Z,25.10
2019-02-21T10:35:32.996Z,24.03
2019-02-21T10:38:17.516Z,28.67
2019-02-21T10:41:01.868Z,33.13
2019-02-21T10:43:55.804Z,24.47
2019-02-21T10:46:49.663Z,29.63
2019-02-21T10:49:43.568Z,24.50
2019-02-21T10:52:28.565Z,20.50
2019-02-21T10:55:13.643Z,22.43
2019-02-21T10:58:07.204Z,29.27
2019-02-21T11:00:51.691Z,22.43
2019-02-21T11:03:36.439Z,21.10
2019-02-21T11:06:21.189Z,24.43
2019-02-21T11:09:07.548Z,23.87
2019-02-21T11:11:52.312Z,18.77
2019-02-21T11:14:47.335Z,18.73
2019-02-21T11:17:25.755Z,21.37
2019-02-21T11:20:09.625Z,23.67
2019-02-21T11:23:02.896Z,18.63
2019-02-21T11:25:48.367Z,17.20
2019-02-21T11:28:42.149Z,20.77
2019-02-21T11:31:27.909Z,17.77
2019-02-21T11:34:12.474Z,17.50
2019-02-21T11:36:57.113Z,23.03
2019-02-21T11:39:50.424Z,18.97
2019-02-21T11:42:35.043Z,22.63
2019-02-21T11:45:19.862Z,20.63
2019-02-21T11:48:13.741Z,18.87
2019-02-21T11:50:58.496Z,16.47
2019-02-21T11:53:43.232Z,25.17
2019-02-21T11:56:38.045Z,16.67
2019-02-21T11:59:22.228Z,16.90
2019-02-21T12:02:07.233Z,17.40
2019-02-21T12:04:52.322Z,16.97
2019-02-21T12:07:36.849Z,20.77
2019-02-21T12:10:21.663Z,17.93
2019-02-21T12:13:06.196Z,18.03
2019-02-21T12:15:51.084Z,16.47
2019-02-21T12:18:35.893Z,13.30
2019-02-21T12:21:20.757Z,14.63
2019-02-21T12:24:05.506Z,13.40
2019-02-21T12:26:49.705Z,13.87
2019-02-21T12:29:42.971Z,11.60
2019-02-21T12:32:27.507Z,13.97
2019-02-21T12:35:12.066Z,12.97
2019-02-21T12:38:05.488Z,16.27
2019-02-21T12:40:49.972Z,12.97
2019-02-21T12:43:34.432Z,15.90
2019-02-21T12:46:18.910Z,18.70
2019-02-21T12:49:12.540Z,20.63
2019-02-21T12:51:57.471Z,22.47
2019-02-21T12:54:51.747Z,18.67
2019-02-21T12:57:58.644Z,19.10
2019-02-21T13:00:43.227Z,20.57
2019-02-21T13:03:37.787Z,20.40
2019-02-21T13:06:22.600Z,17.30
2019-02-21T13:09:07.052Z,24.87
2019-02-21T13:11:53.237Z,17.47
2019-02-21T13:14:37.302Z,19.17
2019-02-21T13:17:31.273Z,20.00
2019-02-21T13:20:15.794Z,20.00
2019-02-21T13:23:00.415Z,17.67
2019-02-21T13:25:54.690Z,23.43
2019-02-21T13:28:39.585Z,21.27
2019-02-21T13:31:24.069Z,21.97
2019-02-21T13:34:09.084Z,22.73
2019-02-21T13:36:53.150Z,17.97
2019-02-21T13:39:46.662Z,22.53
2019-02-21T13:42:32.374Z,19.70
2019-02-21T13:45:17.939Z,20.00
2019-02-21T13:48:12.240Z,24.50
2019-02-21T13:51:05.744Z,22.17
2019-02-21T13:53:52.359Z,19.63
2019-02-21T13:56:37.504Z,20.50
2019-02-21T13:59:31.203Z,20.40
2019-02-21T14:02:15.793Z,19.73
2019-02-21T14:05:00.482Z,17.73
2019-02-21T14:07:44.731Z,18.53
2019-02-21T14:10:40.538Z,19.67
2019-02-21T14:13:25.219Z,17.57
2019-02-21T14:16:18.859Z,18.13
2019-02-21T14:19:03.731Z,20.87
2019-02-21T14:21:57.331Z,17.07
2019-02-21T14:24:42.139Z,19.70
2019-02-21T14:27:26.632Z,15.37
2019-02-21T14:30:11.344Z,19.57
2019-02-21T14:32:56.239Z,17.60
2019-02-21T14:35:40.761Z,17.23
2019-02-21T14:38:28.228Z,17.13
2019-02-21T14:41:20.444Z,19.37
2019-02-21T14:44:04.758Z,16.17
2019-02-21T14:46:50.319Z,14.50
2019-02-21T14:49:43.881Z,17.03
2019-02-21T14:52:29.216Z,14.73
2019-02-21T14:55:44.257Z,14.80
2019-02-21T14:58:28.960Z,18.93
2019-02-21T15:01:13.449Z,15.07
2019-02-21T15:03:58.124Z,15.70
2019-02-21T15:06:42.548Z,18.87
2019-02-21T15:09:27.736Z,17.23
2019-02-21T15:12:12.432Z,17.50
2019-02-21T15:14:57.036Z,17.17
2019-02-21T15:17:41.812Z,15.43
2019-02-21T15:20:36.216Z,15.20
2019-02-21T15:23:21.161Z,16.83
2019-02-21T15:26:06.058Z,18.00
2019-02-21T15:29:00.370Z,21.17
2019-02-21T15:31:44.719Z,16.73
2019-02-21T15:34:29.677Z,14.63
2019-02-21T15:37:13.995Z,18.97
2019-02-21T15:39:58.937Z,21.10
2019-02-21T15:42:43.843Z,25.73
2019-02-21T15:45:28.608Z,26.33
2019-02-21T15:48:13.353Z,44.40
2019-02-21T15:50:57.489Z,23.60
2019-02-21T15:53:51.047Z,25.17
2019-02-21T15:56:35.707Z,25.33
2019-02-21T15:59:20.432Z,19.13
2019-02-21T16:02:05.304Z,14.97
2019-02-21T16:04:50.461Z,22.40
2019-02-21T16:07:34.516Z,21.43
2019-02-21T16:10:18.929Z,19.87
2019-02-21T16:13:13.044Z,27.60
2019-02-21T16:15:57.761Z,20.10
2019-02-21T16:18:51.207Z,19.47
2019-02-21T16:21:36.035Z,18.60
2019-02-21T16:24:20.998Z,18.57
2019-02-21T16:27:06.476Z,19.33
2019-02-21T16:29:59.924Z,15.43
2019-02-21T16:32:44.599Z,16.67
2019-02-21T16:35:29.231Z,17.60
2019-02-21T16:38:14.084Z,13.87
2019-02-21T16:40:58.732Z,18.30
2019-02-21T16:43:43.482Z,24.30
2019-02-21T16:46:28.640Z,18.47
2019-02-21T16:49:12.861Z,18.33
2019-02-21T16:51:57.568Z,17.97
2019-02-21T16:54:50.375Z,17.57
2019-02-21T16:57:35.279Z,21.07
2019-02-21T17:00:19.873Z,18.43
2019-02-21T17:03:04.264Z,21.70
2019-02-21T17:05:57.962Z,17.80
2019-02-21T17:08:42.520Z,17.83
2019-02-21T17:11:26.895Z,17.40
2019-02-21T17:14:11.828Z,21.23
2019-02-21T17:16:56.376Z,22.63
2019-02-21T17:19:40.514Z,16.63
2019-02-21T17:22:33.859Z,16.23
2019-02-21T17:25:18.642Z,19.83
2019-02-21T17:28:03.445Z,17.70
2019-02-21T17:30:48.246Z,17.93
2019-02-21T17:33:32.536Z,15.50
2019-02-21T17:36:25.843Z,15.57
2019-02-21T17:39:10.356Z,21.37
2019-02-21T17:41:55.092Z,19.83
2019-02-21T17:44:39.693Z,17.23
2019-02-21T17:47:33.108Z,18.17
2019-02-21T17:50:17.592Z,16.90
2019-02-21T17:53:02.328Z,27.03
2019-02-21T17:55:46.808Z,31.40
2019-02-21T17:58:31.637Z,19.80
2019-02-21T18:01:16.634Z,20.77
2019-02-21T18:04:01.144Z,18.93
2019-02-21T18:06:45.795Z,16.00
2019-02-21T18:09:39.191Z,17.83
2019-02-21T18:12:24.411Z,15.60
2019-02-21T18:15:21.091Z,21.40
2019-02-21T18:18:06.622Z,39.57
2019-02-21T18:20:53.173Z,20.70
2019-02-21T18:23:49.219Z,22.30
2019-02-21T18:26:34.656Z,15.87
2019-02-21T18:29:21.069Z,16.10
2019-02-21T18:32:05.384Z,15.67
2019-02-21T18:34:49.541Z,13.17
2019-02-21T18:37:47.308Z,15.23
2019-02-21T18:40:29.452Z,16.53
2019-02-21T18:43:14.337Z,13.83
2019-02-21T18:45:59.238Z,15.50
2019-02-21T18:48:44.196Z,14.70
2019-02-21T18:51:28.710Z,11.80
2019-02-21T18:54:13.656Z,12.43
2019-02-21T18:56:58.556Z,16.73
2019-02-21T18:59:43.384Z,20.40
2019-02-21T19:02:28.536Z,10.33
2019-02-21T19:05:34.942Z,14.00
2019-02-21T19:08:10.880Z,13.70
2019-02-21T19:10:56.266Z,11.83
2019-02-21T19:13:40.480Z,15.10
2019-02-21T19:16:33.856Z,15.83
2019-02-21T19:19:18.801Z,12.87
2019-02-21T19:22:03.651Z,16.70
2019-02-21T19:24:48.377Z,11.63
2019-02-21T19:27:37.042Z,14.17
2019-02-21T19:30:19.965Z,13.53
2019-02-21T19:33:04.484Z,12.17
2019-02-21T19:35:49.008Z,11.70
2019-02-21T19:38:34.193Z,13.93
2019-02-21T19:41:18.468Z,14.90
2019-02-21T19:44:08.757Z,13.17
2019-02-21T19:46:49.564Z,11.30
2019-02-21T19:49:34.766Z,14.13
2019-02-21T19:52:19.480Z,14.33
2019-02-21T19:55:04.400Z,14.10
2019-02-21T19:57:49.635Z,13.80
2019-02-21T20:00:35.276Z,12.23
2019-02-21T20:03:20.512Z,11.40
2019-02-21T20:06:05.458Z,14.33
2019-02-21T20:08:50.364Z,14.97
2019-02-21T20:11:36.009Z,12.43
2019-02-21T20:14:21.143Z,13.97
2019-02-21T20:17:05.585Z,14.47
2019-02-21T20:19:50.337Z,11.43
2019-02-21T20:22:34.800Z,14.47
2019-02-21T20:25:28.436Z,13.73
2019-02-21T20:28:13.348Z,12.93
2019-02-21T20:30:58.322Z,16.00
2019-02-21T20:33:51.960Z,12.43
2019-02-21T20:36:36.488Z,16.83
2019-02-21T20:39:21.179Z,12.03
2019-02-21T20:42:06.073Z,12.73
2019-02-21T20:44:51.049Z,13.13
2019-02-21T20:47:35.915Z,11.83
2019-02-21T20:50:20.589Z,11.60
2019-02-21T20:53:05.300Z,14.00
2019-02-21T20:55:49.372Z,13.33
2019-02-21T20:58:42.721Z,14.33
2019-02-21T21:01:27.619Z,13.37
2019-02-21T21:04:12.358Z,11.80
2019-02-21T21:06:56.876Z,12.73
2019-02-21T21:09:41.812Z,18.50
2019-02-21T21:12:26.548Z,16.10
2019-02-21T21:15:11.302Z,14.77
2019-02-21T21:17:56.261Z,15.27
2019-02-21T21:20:40.557Z,14.17
2019-02-21T21:23:34.003Z,15.83
2019-02-21T21:26:19.591Z,12.80
2019-02-21T21:29:04.972Z,14.80
2019-02-21T21:31:49.603Z,18.93
2019-02-21T21:34:34.128Z,16.17
2019-02-21T21:37:18.885Z,13.77
2019-02-21T21:40:03.687Z,19.00
2019-02-21T21:42:49.132Z,15.50
2019-02-21T21:45:33.893Z,16.93
2019-02-21T21:48:18.704Z,15.30
2019-02-21T21:51:03.011Z,18.00
2019-02-21T21:53:48.093Z,18.50
2019-02-21T21:56:32.435Z,18.77
2019-02-21T21:59:16.988Z,17.33
2019-02-21T22:02:10.431Z,17.60
2019-02-21T22:04:55.254Z,14.30
2019-02-21T22:07:40.344Z,18.97
2019-02-21T22:10:34.424Z,15.80
2019-02-21T22:13:18.955Z,14.83
2019-02-21T22:16:03.848Z,18.10
2019-02-21T22:18:49.656Z,17.30
2019-02-21T22:21:34.476Z,16.03
2019-02-21T22:24:18.830Z,18.47
2019-02-21T22:27:11.909Z,15.77
2019-02-21T22:29:56.580Z,19.90
2019-02-21T22:32:41.482Z,15.23
2019-02-21T22:35:26.100Z,16.87
2019-02-21T22:38:10.492Z,18.33
2019-02-21T22:41:03.860Z,18.50
2019-02-21T22:43:48.623Z,20.23
2019-02-21T22:46:32.946Z,20.80
2019-02-21T22:49:17.265Z,19.83
2019-02-21T22:52:10.410Z,21.37
2019-02-21T22:54:55.115Z,18.77
2019-02-21T22:57:39.580Z,21.33
2019-02-21T23:00:36.479Z,17.13
2019-02-21T23:03:23.020Z,19.97
2019-02-21T23:06:08.366Z,21.33
2019-02-21T23:09:01.639Z,17.97
2019-02-21T23:11:48.151Z,18.20
2019-02-21T23:14:32.859Z,17.50
2019-02-21T23:17:17.741Z,22.97
2019-02-21T23:20:02.421Z,18.87
2019-02-21T23:22:46.919Z,18.37
2019-02-21T23:25:31.591Z,23.10
2019-02-21T23:28:16.355Z,20.33
2019-02-21T23:31:01.280Z,22.53
2019-02-21T23:33:49.368Z,20.43
2019-02-21T23:36:45.868Z,21.20
2019-02-21T23:39:37.962Z,21.53
2019-02-21T23:42:18.185Z,21.33
2019-02-21T23:45:02.747Z,19.50
2019-02-21T23:47:56.419Z,25.90
2019-02-21T23:50:52.675Z,21.77
2019-02-21T23:53:37.377Z,20.63
2019-02-21T23:56:22.283Z,24.90
2019-02-21T23:59:06.862Z,21.33
